createdAt,value
2023-05-02T00:01:41.144Z,10.52
2023-05-02T00:04:26.659Z,12.18
2023-05-02T00:07:12.239Z,9.40
2023-05-02T00:09:58.444Z,14.90
2023-05-02T00:12:43.726Z,11.45
2023-05-02T00:15:29.315Z,10.70
2023-05-02T00:18:14.619Z,10.88
2023-05-02T00:20:59.892Z,13.30
2023-05-02T00:23:45.462Z,15.38
2023-05-02T00:26:30.948Z,11.75
2023-05-02T00:29:17.208Z,12.40
2023-05-02T00:32:02.640Z,9.77
2023-05-02T00:34:48.183Z,14.15
2023-05-02T00:37:33.654Z,13.45
2023-05-02T00:40:19.091Z,9.05
2023-05-02T00:43:04.537Z,10.73
2023-05-02T00:45:50.698Z,12.88
2023-05-02T00:48:36.606Z,11.48
2023-05-02T00:51:22.175Z,10.90
2023-05-02T00:54:07.562Z,11.90
2023-05-02T00:56:52.866Z,14.95
2023-05-02T00:59:38.310Z,11.90
2023-05-02T01:02:43.367Z,8.68
2023-05-02T01:05:36.442Z,10.23
2023-05-02T01:08:46.978Z,10.82
2023-05-02T01:11:46.635Z,9.63
2023-05-02T01:14:36.279Z,9.82
2023-05-02T01:17:28.874Z,5.90
2023-05-02T01:20:18.509Z,8.65
2023-05-02T01:23:12.680Z,5.43
2023-05-02T01:26:13.519Z,6.55
2023-05-02T01:29:07.068Z,7.90
2023-05-02T01:31:52.492Z,6.55
2023-05-02T01:34:41.587Z,7.70
2023-05-02T01:37:29.195Z,6.03
2023-05-02T01:40:18.434Z,5.20
2023-05-02T01:43:06.008Z,4.57
2023-05-02T01:45:53.144Z,9.60
2023-05-02T01:48:40.754Z,7.55
2023-05-02T01:51:31.948Z,6.43
2023-05-02T01:54:18.603Z,8.23
2023-05-02T01:57:07.551Z,6.90
2023-05-02T01:59:56.668Z,6.20
2023-05-02T02:02:43.652Z,7.05
2023-05-02T02:05:29.701Z,8.32
2023-05-02T02:08:14.979Z,6.97
2023-05-02T02:11:07.658Z,5.07
2023-05-02T02:14:04.802Z,7.97
2023-05-02T02:16:53.395Z,6.40
2023-05-02T02:19:40.632Z,5.72
2023-05-02T02:22:28.796Z,5.40
2023-05-02T02:25:17.148Z,7.15
2023-05-02T02:28:02.269Z,8.43
2023-05-02T02:30:48.017Z,6.95
2023-05-02T02:33:33.650Z,5.80
2023-05-02T02:36:27.493Z,8.48
2023-05-02T02:39:39.104Z,7.10
2023-05-02T02:42:52.102Z,7.60
2023-05-02T02:45:56.929Z,6.78
2023-05-02T02:48:52.300Z,7.28
2023-05-02T02:52:10.458Z,8.23
2023-05-02T02:55:07.368Z,8.32
2023-05-02T02:57:58.908Z,8.23
2023-05-02T03:00:46.073Z,8.75
2023-05-02T03:03:33.279Z,6.25
2023-05-02T03:06:19.399Z,6.40
2023-05-02T03:09:05.092Z,6.07
2023-05-02T03:11:51.029Z,5.88
2023-05-02T03:14:37.521Z,6.57
2023-05-02T03:17:25.647Z,9.43
2023-05-02T03:20:11.461Z,5.63
2023-05-02T03:22:56.726Z,8.77
2023-05-02T03:25:42.741Z,9.50
2023-05-02T03:28:30.983Z,7.57
2023-05-02T03:31:17.035Z,5.72
2023-05-02T03:34:02.703Z,8.15
2023-05-02T03:36:48.318Z,9.85
2023-05-02T03:39:34.243Z,6.93
2023-05-02T03:42:21.886Z,8.45
2023-05-02T03:45:08.228Z,7.45
2023-05-02T03:47:53.987Z,6.80
2023-05-02T03:50:39.694Z,10.55
2023-05-02T03:53:25.110Z,7.10
2023-05-02T03:56:23.285Z,12.02
2023-05-02T03:59:35.276Z,9.75
2023-05-02T04:02:27.983Z,14.30
2023-05-02T04:05:13.694Z,12.90
2023-05-02T04:07:59.309Z,12.25
2023-05-02T04:10:44.652Z,14.40
2023-05-02T04:13:30.619Z,11.95
2023-05-02T04:16:17.132Z,14.38
2023-05-02T04:19:02.438Z,9.07
2023-05-02T04:21:47.734Z,12.85
2023-05-02T04:24:33.542Z,10.85
2023-05-02T04:27:19.093Z,11.63
2023-05-02T04:30:06.133Z,12.48
2023-05-02T04:32:52.335Z,17.35
2023-05-02T04:35:41.082Z,12.55
2023-05-02T04:38:28.580Z,12.50
2023-05-02T04:41:15.078Z,13.27
2023-05-02T04:44:05.832Z,15.57
2023-05-02T04:46:52.919Z,12.43
2023-05-02T04:49:38.612Z,10.77
2023-05-02T04:52:24.489Z,12.85
2023-05-02T04:55:09.943Z,13.85
2023-05-02T04:57:56.458Z,18.48
2023-05-02T05:00:44.244Z,15.93
2023-05-02T05:03:33.491Z,14.50
2023-05-02T05:06:19.539Z,10.80
2023-05-02T05:09:05.985Z,13.40
2023-05-02T05:11:53.570Z,9.70
2023-05-02T05:14:39.505Z,10.02
2023-05-02T05:17:25.090Z,8.27
2023-05-02T05:20:11.565Z,8.80
2023-05-02T05:22:58.172Z,8.35
2023-05-02T05:25:45.853Z,10.70
2023-05-02T05:28:33.543Z,8.43
2023-05-02T05:31:19.307Z,7.18
2023-05-02T05:34:08.774Z,9.48
2023-05-02T05:36:54.471Z,5.75
2023-05-02T05:39:41.427Z,6.13
2023-05-02T05:42:27.708Z,5.80
2023-05-02T05:45:19.465Z,8.32
2023-05-02T05:48:05.515Z,7.65
2023-05-02T05:50:55.241Z,10.05
2023-05-02T05:53:40.838Z,10.55
2023-05-02T05:56:28.230Z,12.98
2023-05-02T05:59:20.712Z,8.00
2023-05-02T06:02:06.821Z,8.48
2023-05-02T06:04:52.640Z,12.23
2023-05-02T06:07:41.086Z,6.18
2023-05-02T06:10:26.513Z,6.53
2023-05-02T06:13:12.450Z,6.97
2023-05-02T06:16:03.775Z,9.80
2023-05-02T06:18:51.945Z,8.77
2023-05-02T06:21:38.023Z,5.82
2023-05-02T06:24:23.826Z,11.65
2023-05-02T06:27:09.209Z,7.18
2023-05-02T06:29:54.698Z,4.63
2023-05-02T06:32:42.285Z,6.78
2023-05-02T06:35:27.903Z,7.68
2023-05-02T06:38:13.319Z,4.95
2023-05-02T06:40:58.950Z,6.72
2023-05-02T06:43:44.311Z,8.88
2023-05-02T06:46:30.962Z,6.60
2023-05-02T06:49:16.650Z,4.68
2023-05-02T06:52:02.204Z,7.43
2023-05-02T06:54:47.567Z,7.28
2023-05-02T06:57:33.086Z,7.22
2023-05-02T07:00:19.621Z,7.00
2023-05-02T07:03:05.089Z,7.00
2023-05-02T07:05:50.550Z,6.82
2023-05-02T07:08:36.175Z,7.47
2023-05-02T07:11:23.480Z,6.38
2023-05-02T07:14:08.805Z,5.88
2023-05-02T07:16:54.492Z,9.68
2023-05-02T07:19:40.678Z,9.65
2023-05-02T07:22:26.964Z,7.20
2023-05-02T07:25:12.318Z,7.07
2023-05-02T07:27:57.868Z,8.38
2023-05-02T07:30:43.036Z,7.07
2023-05-02T07:33:28.826Z,3.63
2023-05-02T07:36:14.154Z,4.18
2023-05-02T07:38:59.820Z,4.93
2023-05-02T07:41:45.335Z,7.32
2023-05-02T07:44:30.494Z,3.80
2023-05-02T07:47:16.064Z,5.80
2023-05-02T07:50:02.065Z,3.95
2023-05-02T07:52:47.531Z,4.53
2023-05-02T07:55:33.372Z,8.18
2023-05-02T07:58:18.629Z,5.13
2023-05-02T08:01:04.560Z,5.18
2023-05-02T08:03:50.137Z,3.22
2023-05-02T08:06:36.746Z,4.78
2023-05-02T08:09:22.424Z,6.68
2023-05-02T08:12:07.832Z,2.92
2023-05-02T08:14:53.915Z,4.20
2023-05-02T08:17:39.690Z,5.57
2023-05-02T08:20:25.238Z,5.45
2023-05-02T08:23:10.743Z,4.07
2023-05-02T08:25:56.385Z,6.15
2023-05-02T08:28:41.722Z,3.80
2023-05-02T08:31:27.143Z,4.10
2023-05-02T08:34:12.675Z,6.03
2023-05-02T08:36:58.613Z,6.53
2023-05-02T08:39:43.922Z,4.45
2023-05-02T08:42:31.439Z,7.60
2023-05-02T08:45:18.077Z,3.97
2023-05-02T08:48:07.838Z,6.80
2023-05-02T08:50:54.082Z,6.18
2023-05-02T08:53:40.712Z,5.20
2023-05-02T08:56:26.180Z,5.35
2023-05-02T08:59:11.284Z,4.28
2023-05-02T09:02:01.271Z,4.35
2023-05-02T09:04:50.933Z,9.48
2023-05-02T09:07:49.353Z,6.28
2023-05-02T09:10:38.591Z,3.95
2023-05-02T09:13:35.324Z,4.68
2023-05-02T09:16:25.693Z,4.40
2023-05-02T09:19:23.407Z,5.15
2023-05-02T09:22:08.554Z,6.13
2023-05-02T09:24:55.151Z,7.03
2023-05-02T09:27:56.845Z,4.63
2023-05-02T09:30:42.312Z,9.48
2023-05-02T09:33:28.055Z,6.25
2023-05-02T09:36:18.656Z,6.75
2023-05-02T09:39:13.776Z,10.07
2023-05-02T09:41:59.526Z,10.00
2023-05-02T09:44:44.714Z,7.00
2023-05-02T09:47:30.256Z,5.95
2023-05-02T09:50:35.269Z,5.78
2023-05-02T09:53:20.674Z,8.45
2023-05-02T09:56:06.295Z,6.97
2023-05-02T09:58:51.311Z,3.78
2023-05-02T10:01:36.786Z,6.40
2023-05-02T10:04:22.243Z,5.45
2023-05-02T10:07:10.581Z,7.32
2023-05-02T10:10:00.065Z,3.22
2023-05-02T10:12:47.378Z,5.18
2023-05-02T10:15:33.839Z,4.45
2023-05-02T10:18:32.396Z,6.90
2023-05-02T10:21:25.238Z,6.50
2023-05-02T10:24:12.269Z,6.68
2023-05-02T10:26:58.119Z,4.38
2023-05-02T10:29:44.740Z,7.60
2023-05-02T10:32:32.717Z,6.63
2023-05-02T10:35:18.940Z,6.05
2023-05-02T10:38:06.123Z,6.10
2023-05-02T10:40:56.094Z,5.82
2023-05-02T10:43:45.815Z,6.20
2023-05-02T10:46:35.040Z,6.47
2023-05-02T10:49:23.053Z,5.65
2023-05-02T10:52:30.472Z,6.68
2023-05-02T10:55:22.056Z,4.25
2023-05-02T10:58:07.718Z,6.93
2023-05-02T11:00:53.115Z,5.65
2023-05-02T11:04:01.434Z,10.23
2023-05-02T11:06:59.262Z,6.03
2023-05-02T11:09:44.723Z,5.45
2023-05-02T11:13:01.108Z,9.02
2023-05-02T11:15:52.090Z,9.27
2023-05-02T11:19:00.783Z,7.05
2023-05-02T11:21:46.134Z,5.97
2023-05-02T11:24:41.741Z,6.20
2023-05-02T11:27:30.278Z,6.00
2023-05-02T11:30:35.782Z,4.72
2023-05-02T11:33:21.718Z,6.15
2023-05-02T11:36:07.511Z,6.40
2023-05-02T11:38:53.074Z,6.72
2023-05-02T11:41:39.832Z,5.88
2023-05-02T11:44:25.362Z,4.70
2023-05-02T11:47:10.756Z,4.95
2023-05-02T11:49:57.468Z,7.80
2023-05-02T11:52:44.495Z,6.15
2023-05-02T11:55:30.032Z,6.93
2023-05-02T11:58:17.981Z,7.82
2023-05-02T12:01:14.372Z,5.65
2023-05-02T12:04:08.025Z,6.22
2023-05-02T12:06:58.027Z,6.70
2023-05-02T12:09:54.041Z,10.25
2023-05-02T12:12:40.884Z,8.70
2023-05-02T12:15:26.630Z,5.72
2023-05-02T12:18:13.283Z,5.07
2023-05-02T12:20:59.237Z,5.68
2023-05-02T12:23:44.880Z,10.63
2023-05-02T12:26:31.933Z,7.28
2023-05-02T12:29:17.332Z,6.50
2023-05-02T12:32:03.061Z,7.45
2023-05-02T12:34:49.076Z,5.47
2023-05-02T12:37:34.566Z,8.38
2023-05-02T12:40:20.570Z,6.10
2023-05-02T12:43:10.337Z,5.65
2023-05-02T12:46:10.429Z,6.88
2023-05-02T12:49:14.065Z,10.35
2023-05-02T12:51:59.824Z,4.68
2023-05-02T12:54:46.508Z,10.32
2023-05-02T12:57:32.258Z,7.95
2023-05-02T13:00:18.281Z,5.45
2023-05-02T13:03:04.401Z,6.43
2023-05-02T13:05:54.302Z,7.95
2023-05-02T13:08:39.742Z,10.88
2023-05-02T13:11:25.291Z,7.68
2023-05-02T13:14:11.684Z,8.52
2023-05-02T13:16:57.416Z,7.28
2023-05-02T13:19:50.551Z,9.85
2023-05-02T13:22:43.861Z,6.50
2023-05-02T13:25:28.986Z,5.43
2023-05-02T13:28:14.608Z,6.57
2023-05-02T13:30:59.874Z,5.10
2023-05-02T13:33:45.278Z,5.07
2023-05-02T13:36:30.846Z,4.15
2023-05-02T13:39:16.301Z,10.27
2023-05-02T13:42:05.889Z,7.45
2023-05-02T13:44:51.777Z,5.45
2023-05-02T13:47:38.764Z,8.40
2023-05-02T13:50:24.920Z,7.35
2023-05-02T13:53:11.174Z,5.88
2023-05-02T13:55:56.477Z,6.00
2023-05-02T13:58:41.982Z,3.60
2023-05-02T14:01:28.414Z,4.82
2023-05-02T14:04:13.799Z,5.35
2023-05-02T14:06:59.279Z,5.68
2023-05-02T14:09:44.852Z,6.63
2023-05-02T14:12:30.988Z,6.93
2023-05-02T14:15:16.241Z,3.75
2023-05-02T14:18:02.212Z,7.95
2023-05-02T14:20:47.510Z,6.05
2023-05-02T14:23:32.921Z,5.90
2023-05-02T14:26:20.011Z,6.07
2023-05-02T14:29:05.286Z,3.38
2023-05-02T14:31:50.738Z,3.45
2023-05-02T14:34:36.091Z,6.60
2023-05-02T14:37:21.588Z,4.68
2023-05-02T14:40:08.066Z,4.15
2023-05-02T14:42:53.523Z,2.67
2023-05-02T14:45:38.972Z,3.55
2023-05-02T14:48:24.324Z,3.33
2023-05-02T14:51:09.755Z,3.22
2023-05-02T14:53:54.940Z,5.47
2023-05-02T14:56:41.183Z,4.15
2023-05-02T14:59:29.496Z,3.80
2023-05-02T15:02:15.164Z,4.60
2023-05-02T15:05:01.300Z,5.78
2023-05-02T15:07:46.448Z,2.65
2023-05-02T15:10:34.492Z,2.97
2023-05-02T15:13:20.134Z,3.90
2023-05-02T15:16:05.887Z,4.43
2023-05-02T15:18:51.540Z,4.85
2023-05-02T15:21:37.362Z,2.38
2023-05-02T15:24:24.426Z,3.42
2023-05-02T15:27:09.905Z,3.65
2023-05-02T15:29:55.377Z,4.93
2023-05-02T15:32:41.061Z,6.40
2023-05-02T15:35:26.417Z,5.10
2023-05-02T15:38:11.850Z,6.65
2023-05-02T15:40:59.525Z,5.00
2023-05-02T15:43:45.016Z,5.00
2023-05-02T15:46:30.593Z,4.82
2023-05-02T15:49:16.093Z,5.07
2023-05-02T15:52:01.939Z,4.80
2023-05-02T15:54:47.261Z,4.88
2023-05-02T15:57:32.804Z,6.18
2023-05-02T16:00:18.388Z,2.35
2023-05-02T16:03:04.236Z,4.70
2023-05-02T16:05:52.912Z,4.47
2023-05-02T16:08:38.024Z,4.13
2023-05-02T16:11:23.830Z,5.40
2023-05-02T16:14:09.272Z,6.50
2023-05-02T16:16:55.834Z,4.82
2023-05-02T16:19:40.921Z,2.83
2023-05-02T16:22:28.184Z,4.53
2023-05-02T16:25:14.762Z,2.72
2023-05-02T16:28:00.491Z,2.75
2023-05-02T16:30:45.770Z,3.95
2023-05-02T16:33:31.160Z,6.88
2023-05-02T16:36:17.216Z,4.20
2023-05-02T16:39:02.634Z,2.70
2023-05-02T16:41:49.397Z,6.38
2023-05-02T16:44:34.683Z,3.03
2023-05-02T16:47:20.127Z,4.40
2023-05-02T16:50:06.222Z,5.15
2023-05-02T16:52:52.058Z,4.07
2023-05-02T16:55:37.456Z,3.47
2023-05-02T16:58:22.896Z,3.75
2023-05-02T17:01:08.515Z,4.15
2023-05-02T17:03:53.806Z,2.70
2023-05-02T17:06:39.252Z,2.40
2023-05-02T17:09:25.198Z,3.53
2023-05-02T17:12:11.424Z,3.28
2023-05-02T17:14:56.646Z,5.65
2023-05-02T17:17:43.888Z,5.93
2023-05-02T17:20:29.342Z,3.50
2023-05-02T17:23:14.653Z,3.75
2023-05-02T17:26:00.077Z,3.90
2023-05-02T17:28:46.067Z,6.65
2023-05-02T17:31:31.390Z,2.72
2023-05-02T17:34:16.758Z,2.80
2023-05-02T17:37:02.270Z,4.50
2023-05-02T17:39:47.809Z,3.60
2023-05-02T17:42:33.278Z,3.15
2023-05-02T17:45:18.520Z,3.78
2023-05-02T17:48:04.217Z,2.75
2023-05-02T17:50:50.941Z,3.60
2023-05-02T17:53:36.775Z,4.60
2023-05-02T17:56:22.083Z,3.70
2023-05-02T17:59:08.215Z,3.03
2023-05-02T18:01:53.416Z,2.70
2023-05-02T18:04:39.029Z,4.47
2023-05-02T18:07:24.622Z,3.50
2023-05-02T18:10:10.309Z,2.33
2023-05-02T18:12:55.394Z,2.80
2023-05-02T18:15:41.264Z,3.45
2023-05-02T18:18:26.728Z,3.17
2023-05-02T18:21:20.038Z,2.47
2023-05-02T18:24:06.167Z,3.38
2023-05-02T18:26:52.483Z,2.88
2023-05-02T18:29:37.934Z,3.75
2023-05-02T18:32:23.313Z,3.42
2023-05-02T18:35:11.054Z,2.42
2023-05-02T18:37:56.681Z,3.55
2023-05-02T18:40:42.363Z,2.05
2023-05-02T18:43:27.891Z,3.15
2023-05-02T18:46:13.346Z,2.10
2023-05-02T18:48:59.250Z,4.05
2023-05-02T18:51:44.785Z,3.00
2023-05-02T18:54:30.600Z,10.68
2023-05-02T18:57:16.089Z,6.15
2023-05-02T19:00:01.674Z,4.80
2023-05-02T19:02:47.497Z,4.40
2023-05-02T19:05:34.765Z,3.45
2023-05-02T19:08:20.906Z,3.67
2023-05-02T19:11:06.862Z,4.57
2023-05-02T19:13:52.237Z,10.18
2023-05-02T19:16:40.982Z,7.93
2023-05-02T19:19:26.697Z,5.05
2023-05-02T19:22:13.618Z,3.53
2023-05-02T19:24:59.852Z,4.47
2023-05-02T19:27:47.601Z,4.75
2023-05-02T19:30:33.382Z,3.88
2023-05-02T19:33:19.250Z,4.28
2023-05-02T19:36:07.098Z,2.95
2023-05-02T19:38:53.982Z,4.72
2023-05-02T19:41:42.308Z,2.97
2023-05-02T19:44:27.450Z,3.15
2023-05-02T19:47:13.118Z,3.38
2023-05-02T19:49:58.596Z,5.35
2023-05-02T19:52:44.837Z,3.30
2023-05-02T19:55:29.871Z,2.92
2023-05-02T19:58:15.254Z,3.42
2023-05-02T20:01:01.023Z,4.38
2023-05-02T20:03:46.470Z,3.97
2023-05-02T20:06:33.421Z,3.00
2023-05-02T20:09:18.518Z,2.25
2023-05-02T20:12:04.144Z,4.00
2023-05-02T20:14:49.333Z,2.30
2023-05-02T20:17:34.871Z,2.88
2023-05-02T20:20:20.450Z,2.55
2023-05-02T20:23:05.897Z,4.57
2023-05-02T20:25:51.415Z,11.18
2023-05-02T20:28:37.622Z,5.13
2023-05-02T20:31:22.960Z,5.07
2023-05-02T20:34:08.458Z,6.18
2023-05-02T20:36:54.178Z,4.90
2023-05-02T20:39:39.509Z,3.50
2023-05-02T20:42:25.636Z,4.13
2023-05-02T20:45:12.548Z,3.42
2023-05-02T20:47:58.188Z,2.70
2023-05-02T20:50:52.430Z,4.45
2023-05-02T20:53:38.150Z,3.83
2023-05-02T20:56:23.335Z,3.58
2023-05-02T20:59:08.944Z,3.55
2023-05-02T21:01:54.208Z,3.80
2023-05-02T21:04:40.962Z,3.50
2023-05-02T21:07:26.685Z,3.35
2023-05-02T21:10:11.934Z,5.70
2023-05-02T21:12:57.451Z,5.40
2023-05-02T21:15:42.913Z,2.88
2023-05-02T21:18:28.287Z,3.30
2023-05-02T21:21:14.139Z,4.68
2023-05-02T21:23:59.628Z,4.15
2023-05-02T21:26:45.214Z,12.30
2023-05-02T21:29:30.270Z,9.57
2023-05-02T21:32:15.817Z,10.43
2023-05-02T21:35:01.536Z,4.50
2023-05-02T21:37:47.158Z,4.72
2023-05-02T21:40:39.919Z,3.38
2023-05-02T21:43:25.089Z,3.45
2023-05-02T21:46:11.693Z,4.78
2023-05-02T21:48:57.162Z,3.83
2023-05-02T21:51:43.032Z,3.55
2023-05-02T21:54:28.455Z,4.60
2023-05-02T21:57:13.895Z,2.15
2023-05-02T21:59:59.352Z,3.22
2023-05-02T22:02:44.997Z,3.08
2023-05-02T22:05:30.620Z,2.78
2023-05-02T22:08:16.129Z,3.63
2023-05-02T22:11:05.298Z,5.15
2023-05-02T22:13:51.144Z,3.78
2023-05-02T22:16:37.374Z,4.25
2023-05-02T22:19:22.820Z,4.88
2023-05-02T22:22:08.247Z,4.50
2023-05-02T22:24:53.725Z,5.60
2023-05-02T22:27:39.224Z,4.15
2023-05-02T22:30:24.458Z,3.25
2023-05-02T22:33:10.042Z,4.95
2023-05-02T22:35:56.971Z,3.28
2023-05-02T22:38:42.518Z,5.07
2023-05-02T22:41:28.085Z,3.88
2023-05-02T22:44:13.256Z,3.65
2023-05-02T22:46:59.123Z,4.57
2023-05-02T22:49:45.895Z,2.78
2023-05-02T22:52:31.626Z,2.85
2023-05-02T22:55:17.430Z,4.22
2023-05-02T22:58:02.768Z,4.18
2023-05-02T23:00:48.211Z,4.05
2023-05-02T23:03:34.028Z,2.80
2023-05-02T23:06:19.761Z,5.65
2023-05-02T23:09:06.877Z,3.17
2023-05-02T23:11:52.291Z,3.35
2023-05-02T23:14:37.695Z,4.85
2023-05-02T23:17:23.463Z,3.75
2023-05-02T23:20:10.393Z,3.22
2023-05-02T23:22:56.183Z,4.22
2023-05-02T23:25:41.751Z,4.20
2023-05-02T23:28:26.900Z,3.80
2023-05-02T23:31:12.549Z,6.07
2023-05-02T23:33:58.195Z,7.75
2023-05-02T23:36:43.681Z,5.18
2023-05-02T23:39:29.336Z,4.88
2023-05-02T23:42:15.598Z,5.22
2023-05-02T23:45:01.031Z,4.53
2023-05-02T23:47:46.551Z,5.22
2023-05-02T23:50:32.670Z,6.43
2023-05-02T23:53:17.816Z,4.88
2023-05-02T23:56:03.297Z,3.10
2023-05-02T23:58:48.414Z,3.88
